sensor_id;sensor_type;location;lat;lon;timestamp;P1;P2;P0
68341;PMS7003;55668;52.310;21.066;2023-07-16T00:10:40;21;21;
68341;PMS7003;55668;52.310;21.066;2023-07-16T00:29:46;25;25;
68341;PMS7003;55668;52.310;21.066;2023-07-16T00:44:00;21;21;
68341;PMS7003;55668;52.310;21.066;2023-07-16T00:57:11;20;20;
68341;PMS7003;55668;52.310;21.066;2023-07-16T01:12:02;23;23;
68341;PMS7003;55668;52.310;21.066;2023-07-16T01:31:04;23;23;
68341;PMS7003;55668;52.310;21.066;2023-07-16T01:42:43;23;22;
68341;PMS7003;55668;52.310;21.066;2023-07-16T01:58:06;25;25;
68341;PMS7003;55668;52.310;21.066;2023-07-16T02:29:46;23;23;
68341;PMS7003;55668;52.310;21.066;2023-07-16T02:44:27;24;24;
68341;PMS7003;55668;52.310;21.066;2023-07-16T03:00:55;24;22;
68341;PMS7003;55668;52.310;21.066;2023-07-16T03:30:12;24;24;
68341;PMS7003;55668;52.310;21.066;2023-07-16T03:47:29;24;24;
68341;PMS7003;55668;52.310;21.066;2023-07-16T04:01:39;23;23;
68341;PMS7003;55668;52.310;21.066;2023-07-16T04:17:09;26;26;
68341;PMS7003;55668;52.310;21.066;2023-07-16T04:35:35;25;25;
68341;PMS7003;55668;52.310;21.066;2023-07-16T04:47:34;28;28;
68341;PMS7003;55668;52.310;21.066;2023-07-16T04:54:42;28;28;
68341;PMS7003;55668;52.310;21.066;2023-07-16T05:25:10;25;25;
68341;PMS7003;55668;52.310;21.066;2023-07-16T05:41:38;26;26;
68341;PMS7003;55668;52.310;21.066;2023-07-16T05:48:01;25;25;
68341;PMS7003;55668;52.310;21.066;2023-07-16T06:04:02;23;23;
68341;PMS7003;55668;52.310;21.066;2023-07-16T06:19:23;24;23;
68341;PMS7003;55668;52.310;21.066;2023-07-16T06:35:57;23;23;
68341;PMS7003;55668;52.310;21.066;2023-07-16T06:47:22;25;25;
68341;PMS7003;55668;52.310;21.066;2023-07-16T06:49:47;25;25;
68341;PMS7003;55668;52.310;21.066;2023-07-16T07:04:45;24;23;
68341;PMS7003;55668;52.310;21.066;2023-07-16T07:36:35;35;32;
68341;PMS7003;55668;52.310;21.066;2023-07-16T07:53:43;33;31;
68341;PMS7003;55668;52.310;21.066;2023-07-16T08:06:08;25;25;
68341;PMS7003;55668;52.310;21.066;2023-07-16T08:22:31;23;23;
68341;PMS7003;55668;52.310;21.066;2023-07-16T08:38:52;23;23;
68341;PMS7003;55668;52.310;21.066;2023-07-16T08:53:24;23;23;
68341;PMS7003;55668;52.310;21.066;2023-07-16T09:08:36;21;21;
68341;PMS7003;55668;52.310;21.066;2023-07-16T09:39:46;16;16;
68341;PMS7003;55668;52.310;21.066;2023-07-16T09:54:35;19;19;
68341;PMS7003;55668;52.310;21.066;2023-07-16T10:09:09;17;17;
68341;PMS7003;55668;52.310;21.066;2023-07-16T10:27:04;18;18;
68341;PMS7003;55668;52.310;21.066;2023-07-16T10:40:27;18;18;
68341;PMS7003;55668;52.310;21.066;2023-07-16T11:10:30;24;24;
68341;PMS7003;55668;52.310;21.066;2023-07-16T11:26:50;23;23;
68341;PMS7003;55668;52.310;21.066;2023-07-16T11:57:58;23;23;
68341;PMS7003;55668;52.310;21.066;2023-07-16T12:12:02;20;20;
68341;PMS7003;55668;52.310;21.066;2023-07-16T12:29:59;29;27;
68341;PMS7003;55668;52.310;21.066;2023-07-16T12:42:26;24;24;
68341;PMS7003;55668;52.310;21.066;2023-07-16T12:58:47;26;26;
68341;PMS7003;55668;52.310;21.066;2023-07-16T13:13:33;23;23;
68341;PMS7003;55668;52.310;21.066;2023-07-16T13:28:59;24;24;
68341;PMS7003;55668;52.310;21.066;2023-07-16T13:44:40;18;18;
68341;PMS7003;55668;52.310;21.066;2023-07-16T13:59:45;62;51;
68341;PMS7003;55668;52.310;21.066;2023-07-16T14:14:58;19;19;
68341;PMS7003;55668;52.310;21.066;2023-07-16T14:29:44;14;14;
68341;PMS7003;55668;52.310;21.066;2023-07-16T14:46:35;13;13;
68341;PMS7003;55668;52.310;21.066;2023-07-16T15:03:02;11;11;
68341;PMS7003;55668;52.310;21.066;2023-07-16T15:21:44;8;8;
68341;PMS7003;55668;52.310;21.066;2023-07-16T15:31:47;9;7;
68341;PMS7003;55668;52.310;21.066;2023-07-16T16:02:10;9;9;
68341;PMS7003;55668;52.310;21.066;2023-07-16T16:17:05;10;8;
68341;PMS7003;55668;52.310;21.066;2023-07-16T16:48:44;8;8;
68341;PMS7003;55668;52.310;21.066;2023-07-16T17:18:39;8;8;
68341;PMS7003;55668;52.310;21.066;2023-07-16T17:33:37;10;10;
68341;PMS7003;55668;52.310;21.066;2023-07-16T17:53:15;7;7;
68341;PMS7003;55668;52.310;21.066;2023-07-16T18:06:09;7;7;
68341;PMS7003;55668;52.310;21.066;2023-07-16T18:20:00;8;8;
68341;PMS7003;55668;52.310;21.066;2023-07-16T18:35:18;7;7;
68341;PMS7003;55668;52.310;21.066;2023-07-16T18:50:51;8;8;
68341;PMS7003;55668;52.310;21.066;2023-07-16T19:06:21;9;9;
68341;PMS7003;55668;52.310;21.066;2023-07-16T19:21:50;9;9;
68341;PMS7003;55668;52.310;21.066;2023-07-16T19:38:42;10;10;
68341;PMS7003;55668;52.310;21.066;2023-07-16T19:52:06;10;9;
68341;PMS7003;55668;52.310;21.066;2023-07-16T20:08:12;9;9;
68341;PMS7003;55668;52.310;21.066;2023-07-16T20:39:30;9;9;
68341;PMS7003;55668;52.310;21.066;2023-07-16T21:09:03;7;7;
68341;PMS7003;55668;52.310;21.066;2023-07-16T21:23:42;6;6;
68341;PMS7003;55668;52.310;21.066;2023-07-16T21:40:51;7;7;
68341;PMS7003;55668;52.310;21.066;2023-07-16T21:54:47;5;5;
68341;PMS7003;55668;52.310;21.066;2023-07-16T22:10:09;8;8;
68341;PMS7003;55668;52.310;21.066;2023-07-16T22:25:52;9;8;
68341;PMS7003;55668;52.310;21.066;2023-07-16T22:41:29;9;9;
68341;PMS7003;55668;52.310;21.066;2023-07-16T22:55:54;8;8;
68341;PMS7003;55668;52.310;21.066;2023-07-16T23:14:32;6;6;
68341;PMS7003;55668;52.310;21.066;2023-07-16T23:27:39;7;7;
68341;PMS7003;55668;52.310;21.066;2023-07-16T23:43:37;6;6;
68341;PMS7003;55668;52.310;21.066;2023-07-16T23:57:10;6;6;
